Aeroporto :
LOGIN :

Iscrizione | Disclaimer

   EN    FR    IT 

 










Sommario :    VFR   VFR Marginale   IFR   IFR Intensivo   IFR Molto Intensivo
Visibilità : 
Base nubi : 
>= 8 km
>= 3000ft
5 / 8 km
1000 / 3000 ft
1500m / 5 km
500 / 1000 ft
800 / 1500m
200 / 500 ft
< 800m
< 200 ft
Simboli :   Temporali  Nebbia  Neve Forte  Precipitazioni Forti  Vento > 20 kt
SIGMETs :   Varie  Temporali  Ghiacco  Turbolenza  Onda orograficha  Ceneri Vulcaniche






- Altitudine del aeroporto : 297 ft


EGVP - Middle Wallop

ULTIMO METAR :
  • 141650Z 31011KT 9999 SCT028 BKN060 OVC140 18/11 Q1015 NOSIG RMK BLU BLU

METARs OBSOLETI :
  • 141622Z 32011KT 9999 SCT030 BKN060 19/12 Q1015 NOSIG RMK BLU BLU
  • 141550Z 29011KT 9999 FEW027 BKN035 BKN070 19/12 Q1015 NOSIG RMK BLU BLU
  • 141522Z 32008KT 9999 FEW035 BKN070 BKN130 19/12 Q1015 NOSIG RMK BLU BLU
  • 141450Z 33008KT 9999 FEW034 BKN070 BKN220 19/12 Q1016 NOSIG RMK BLU BLU
  • 141420Z 31010KT 9999 SCT034 BKN070 BKN250 19/13 Q1016 NOSIG RMK BLU BLU

TAF TAF EGVP
Valido dal 14 a 15 ore il 15 a 00 ore UTC


141333Z 1415/1424 33009KT 9999 BKN035
ATIS : +44 1980 674 142



MetMap, La meteo Aeronautica in un colpo d'occhio ! - Copyright ORBIFLY Dicembre 2007 - Disclaimer

ORBIFLY MET'MAP TEAM :

Programmazione e sviluppo : Alexandra Zaïnal
Concezione : Baudouin d'Aumeries
Aiuto per la programmazione : Marc-Olivier Méhu
Supporto tecnico e logistico : Manuel Goepfert
Aiuto per la traduzione : Arnaldo La Scala

Contatto : metmap@orbifly.com




FONTI E CREDITI :

   NOAA